Time;durP1;ratioP1;P1;durP2;ratioP2;P2;SDS_P1;SDS_P2;PMS_P1;PMS_P2;Temp;Humidity;BMP_temperature;BMP_pressure;BME280_temperature;BME280_humidity;BME280_pressure;Samples;Min_cycle;Max_cycle;Signal;HPM_P1;HPM_P2
2023/08/16 00:02:07;;;;;;;6.10;2.30;;;;;;;20.29;73.93;101336.25;5033067;28;20056;-63
2023/08/16 00:04:35;;;;;;;9.32;2.05;;;;;;;20.12;74.70;101341.03;5034820;28;20060;-64
2023/08/16 00:07:03;;;;;;;7.95;2.00;;;;;;;20.06;74.25;101345.28;5036418;28;20045;-63
2023/08/16 00:09:30;;;;;;;8.35;2.42;;;;;;;19.97;74.59;101339.06;5036887;28;20053;-62
2023/08/16 00:11:57;;;;;;;8.88;2.00;;;;;;;20.20;73.77;101338.44;5053902;28;20349;-63
2023/08/16 00:14:25;;;;;;;8.57;2.08;;;;;;;20.35;73.29;101332.00;5055340;28;20064;-63
2023/08/16 00:16:52;;;;;;;8.45;2.00;;;;;;;20.60;72.40;101323.00;5054899;28;20068;-63
2023/08/16 00:19:20;;;;;;;7.68;2.25;;;;;;;20.68;71.76;101321.16;5053528;28;20049;-63
2023/08/16 00:21:47;;;;;;;6.80;2.38;;;;;;;20.78;71.56;101320.59;5051575;28;20055;-62
2023/08/16 00:24:14;;;;;;;6.43;1.88;;;;;;;20.73;72.36;101320.88;5056273;28;20049;-62
2023/08/16 00:26:43;;;;;;;8.45;2.17;;;;;;;20.76;71.48;101326.56;5055910;28;20052;-63
2023/08/16 00:29:10;;;;;;;8.05;1.90;;;;;;;20.79;70.86;101328.63;5057694;28;20048;-61
2023/08/16 00:31:38;;;;;;;6.65;2.15;;;;;;;20.49;72.10;101321.94;5074749;28;20056;-62
2023/08/16 00:34:05;;;;;;;7.78;2.33;;;;;;;20.72;71.35;101317.28;5075305;28;20044;-63
2023/08/16 00:36:33;;;;;;;10.00;2.08;;;;;;;20.77;70.86;101324.56;5056106;28;20515;-62
2023/08/16 00:39:02;;;;;;;6.80;2.10;;;;;;;20.84;70.69;101319.09;5054748;28;20048;-62
2023/08/16 00:41:30;;;;;;;7.80;2.38;;;;;;;20.46;72.25;101325.47;5054519;28;20045;-64
2023/08/16 00:43:58;;;;;;;9.70;2.08;;;;;;;20.36;72.44;101323.25;5053993;28;20049;-63
2023/08/16 00:46:27;;;;;;;9.57;2.47;;;;;;;20.51;72.32;101315.97;5053214;28;20048;-63
2023/08/16 00:48:55;;;;;;;9.63;2.20;;;;;;;20.62;71.08;101314.22;5054480;28;20079;-62
2023/08/16 00:51:23;;;;;;;7.03;1.90;;;;;;;20.41;72.11;101308.16;5055848;28;20396;-62
2023/08/16 00:53:51;;;;;;;8.60;2.03;;;;;;;20.29;73.10;101311.06;5054374;28;20512;-65
2023/08/16 00:56:19;;;;;;;6.18;1.90;;;;;;;20.30;72.70;101302.31;5038129;28;20111;-65
2023/08/16 00:58:47;;;;;;;8.07;1.90;;;;;;;20.29;73.10;101297.91;5055179;28;20049;-63
2023/08/16 01:01:15;;;;;;;7.45;2.03;;;;;;;20.05;73.56;101292.47;5056222;28;20061;-64
2023/08/16 01:03:42;;;;;;;9.90;2.20;;;;;;;19.90;74.53;101285.75;5046802;28;20046;-63
2023/08/16 01:06:10;;;;;;;7.82;2.22;;;;;;;19.82;74.97;101280.34;5036523;28;20045;-63
2023/08/16 01:08:38;;;;;;;7.57;2.22;;;;;;;19.98;74.43;101275.53;5055799;28;20706;-65
2023/08/16 01:11:27;;;;;;;8.63;2.45;;;;;;;20.11;74.10;101289.06;5055978;28;20052;-62
2023/08/16 01:14:05;;;;;;;6.90;2.15;;;;;;;20.10;73.52;101295.03;5038765;28;20048;-63
2023/08/16 01:16:34;;;;;;;7.68;2.05;;;;;;;20.44;72.81;101285.84;5053367;28;20404;-63
2023/08/16 01:19:03;;;;;;;8.45;2.10;;;;;;;20.61;71.43;101293.81;5053580;28;20400;-63
2023/08/16 01:21:32;;;;;;;5.18;1.83;;;;;;;20.35;72.11;101299.22;5037529;28;20060;-64
2023/08/16 01:24:07;;;;;;;8.27;2.22;;;;;;;20.38;72.09;101295.69;5053887;28;20052;-62
2023/08/16 01:26:37;;;;;;;6.32;2.13;;;;;;;20.38;72.43;101304.09;5022707;28;20053;-63
2023/08/16 01:29:06;;;;;;;8.60;2.22;;;;;;;20.31;72.22;101300.34;5056572;28;20696;-63
2023/08/16 01:31:33;;;;;;;5.30;1.80;;;;;;;20.03;73.53;101301.25;5074060;28;20045;-66
2023/08/16 01:34:01;;;;;;;15.25;2.20;;;;;;;20.05;73.44;101309.28;5075165;28;20399;-64
2023/08/16 01:36:29;;;;;;;10.90;2.20;;;;;;;20.03;73.57;101314.44;5057509;28;20516;-62
2023/08/16 01:38:57;;;;;;;7.78;2.22;;;;;;;20.27;72.85;101310.63;5054522;28;20063;-63
2023/08/16 01:41:33;;;;;;;7.05;1.85;;;;;;;20.01;73.16;101319.56;5053849;28;20056;-62
2023/08/16 01:44:01;;;;;;;5.93;1.80;;;;;;;20.44;72.50;101315.81;5054733;28;20057;-62
2023/08/16 01:46:29;;;;;;;8.32;1.90;;;;;;;20.34;71.35;101314.41;5054755;28;20057;-63
2023/08/16 01:48:58;;;;;;;4.57;2.42;;;;;;;19.92;73.29;101325.38;5052907;28;20052;-62
2023/08/16 01:51:25;;;;;;;8.38;3.88;;;;;;;19.73;74.15;101318.88;5054931;28;20053;-62
2023/08/16 01:53:53;;;;;;;7.90;3.08;;;;;;;19.63;74.41;101320.19;5054304;28;20040;-62
2023/08/16 01:56:21;;;;;;;5.72;2.00;;;;;;;19.55;74.97;101315.59;5053450;28;20053;-62
2023/08/16 01:58:49;;;;;;;8.05;2.15;;;;;;;19.66;75.10;101310.28;5052306;28;20053;-62
2023/08/16 02:01:17;;;;;;;6.13;2.10;;;;;;;19.83;74.33;101316.34;5053319;28;20056;-62
2023/08/16 02:03:44;;;;;;;9.00;1.90;;;;;;;19.99;73.18;101319.94;5052145;28;20056;-62
2023/08/16 02:06:12;;;;;;;6.60;1.70;;;;;;;19.83;73.15;101326.69;5052974;28;20049;-62
2023/08/16 02:08:39;;;;;;;6.32;1.98;;;;;;;19.72;74.13;101320.84;5054035;28;20049;-62
2023/08/16 02:11:06;;;;;;;6.18;1.73;;;;;;;19.73;74.20;101313.28;5054153;28;20056;-62
2023/08/16 02:13:34;;;;;;;8.02;2.00;;;;;;;19.72;74.51;101312.44;5052061;28;20060;-62
2023/08/16 02:16:02;;;;;;;6.28;1.70;;;;;;;19.85;73.35;101315.97;5052907;28;20059;-63
2023/08/16 02:18:31;;;;;;;9.88;2.05;;;;;;;19.79;73.28;101309.84;5052738;28;20648;-62
2023/08/16 02:20:58;;;;;;;8.25;2.30;;;;;;;20.07;72.69;101316.13;5036267;28;20052;-61
2023/08/16 02:23:25;;;;;;;6.38;1.65;;;;;;;19.97;71.25;101313.06;5052723;28;20056;-62
2023/08/16 02:25:53;;;;;;;7.13;1.80;;;;;;;19.95;71.58;101319.03;5053706;28;20480;-62
2023/08/16 02:28:20;;;;;;;7.05;1.73;;;;;;;20.05;70.50;101317.66;5053417;28;20060;-63
2023/08/16 02:30:47;;;;;;;5.75;1.80;;;;;;;19.72;70.61;101312.44;5068749;28;20048;-63
2023/08/16 02:33:15;;;;;;;4.75;1.60;;;;;;;19.70;70.82;101314.00;5072534;28;20060;-62
2023/08/16 02:35:42;;;;;;;6.13;1.60;;;;;;;20.05;70.60;101306.47;5060898;28;20500;-61
2023/08/16 02:38:10;;;;;;;6.45;2.00;;;;;;;20.03;69.94;101320.81;5052195;28;20049;-62
2023/08/16 02:40:38;;;;;;;7.78;1.67;;;;;;;20.21;69.07;101312.09;5053817;28;20049;-62
2023/08/16 02:43:06;;;;;;;5.03;1.60;;;;;;;20.09;68.98;101310.19;5054543;28;20042;-62
2023/08/16 02:45:35;;;;;;;7.22;2.15;;;;;;;20.23;67.97;101306.94;5053334;28;20068;-62
2023/08/16 02:48:03;;;;;;;6.75;2.13;;;;;;;19.99;68.51;101300.38;5033353;28;20050;-62
2023/08/16 02:50:30;;;;;;;6.68;1.50;;;;;;;20.14;68.21;101307.09;5038328;28;20064;-62
2023/08/16 02:52:57;;;;;;;8.75;1.70;;;;;;;20.05;68.47;101307.28;5036094;28;20507;-63
2023/08/16 02:55:25;;;;;;;6.82;1.67;;;;;;;20.42;67.26;101301.38;5053442;28;20049;-63
2023/08/16 02:57:52;;;;;;;6.63;1.75;;;;;;;19.85;68.04;101305.59;5053231;28;20060;-60
2023/08/16 03:00:20;;;;;;;6.45;1.88;;;;;;;19.79;69.55;101300.63;5052344;28;20052;-62
2023/08/16 03:02:47;;;;;;;8.93;2.00;;;;;;;19.82;68.44;101299.94;5031984;28;20042;-62
2023/08/16 03:05:14;;;;;;;6.25;1.75;;;;;;;19.67;68.65;101304.34;5032211;28;20060;-62
2023/08/16 03:07:42;;;;;;;6.18;1.67;;;;;;;19.45;69.05;101302.16;5045535;28;20052;-61
2023/08/16 03:10:10;;;;;;;5.30;1.50;;;;;;;19.37;70.50;101303.13;5051946;28;20052;-63
2023/08/16 03:12:37;;;;;;;7.55;1.63;;;;;;;19.66;69.21;101294.34;5053234;28;20045;-62
2023/08/16 03:15:05;;;;;;;5.75;1.80;;;;;;;19.63;68.92;101292.25;5054057;28;20053;-63
2023/08/16 03:17:32;;;;;;;5.70;1.40;;;;;;;19.65;68.81;101286.31;5053092;28;20049;-63
2023/08/16 03:20:00;;;;;;;9.75;1.70;;;;;;;19.75;68.25;101292.16;5051104;28;20088;-62
2023/08/16 03:22:28;;;;;;;7.30;1.92;;;;;;;19.83;67.96;101293.16;5051789;28;20049;-63
2023/08/16 03:24:55;;;;;;;5.55;1.40;;;;;;;20.01;67.39;101286.03;5048151;28;20046;-62
2023/08/16 03:27:23;;;;;;;6.28;1.58;;;;;;;20.00;67.66;101285.19;5049536;28;20056;-62
2023/08/16 03:29:51;;;;;;;3.70;1.40;;;;;;;20.04;66.91;101291.69;5047147;28;20495;-62
2023/08/16 03:32:18;;;;;;;6.85;1.50;;;;;;;20.25;67.21;101296.19;5071890;28;20048;-62
2023/08/16 03:34:46;;;;;;;7.68;1.60;;;;;;;19.92;68.07;101300.19;5069476;28;20040;-62
2023/08/16 03:37:14;;;;;;;7.75;1.80;;;;;;;20.00;68.14;101306.75;5026942;28;20045;-63
2023/08/16 03:39:42;;;;;;;8.98;1.80;;;;;;;19.96;67.96;101303.88;5033509;28;20057;-62
2023/08/16 03:42:09;;;;;;;7.60;1.67;;;;;;;20.20;67.18;101300.09;5040222;28;20045;-62
2023/08/16 03:44:37;;;;;;;7.93;1.48;;;;;;;20.00;67.30;101306.75;5056957;28;20052;-64
2023/08/16 03:47:04;;;;;;;5.80;1.40;;;;;;;19.90;68.38;101296.13;5055429;28;20053;-62
2023/08/16 03:49:33;;;;;;;4.97;1.48;;;;;;;20.12;66.95;101296.28;5056398;28;20045;-62
2023/08/16 03:52:00;;;;;;;7.50;1.80;;;;;;;19.89;67.65;101288.91;5055679;28;20048;-63
2023/08/16 03:54:28;;;;;;;5.93;1.77;;;;;;;19.81;67.90;101293.50;5054921;28;20040;-62
2023/08/16 03:56:56;;;;;;;4.50;1.40;;;;;;;20.05;67.73;101287.72;5056149;28;20045;-63
2023/08/16 03:59:23;;;;;;;5.47;1.70;;;;;;;20.20;66.40;101290.88;5053903;28;20077;-62
2023/08/16 04:01:51;;;;;;;7.13;1.40;;;;;;;20.11;66.72;101291.03;5056115;28;20053;-61
2023/08/16 04:04:18;;;;;;;7.70;1.60;;;;;;;19.85;67.38;101282.41;5056548;28;20064;-62
2023/08/16 04:06:45;;;;;;;6.40;1.80;;;;;;;19.74;67.99;101282.16;5056778;28;20052;-63
2023/08/16 04:09:13;;;;;;;9.32;2.13;;;;;;;19.68;68.13;101291.97;5055084;28;20056;-62
2023/08/16 04:11:41;;;;;;;5.53;1.95;;;;;;;19.85;67.71;101300.00;5056277;28;20041;-62
2023/08/16 04:14:08;;;;;;;5.10;1.67;;;;;;;20.07;67.76;101292.94;5054915;28;20048;-62
2023/08/16 04:16:36;;;;;;;7.82;1.75;;;;;;;19.88;67.61;101293.69;5056879;28;20049;-62
2023/08/16 04:19:04;;;;;;;7.68;1.73;;;;;;;19.88;67.70;101287.28;5054832;28;20064;-62
2023/08/16 04:21:31;;;;;;;6.75;1.77;;;;;;;19.85;67.92;101279.63;5056177;28;20060;-63
2023/08/16 04:23:59;;;;;;;4.32;1.52;;;;;;;19.84;68.36;101283.59;5056254;28;20045;-63
2023/08/16 04:26:26;;;;;;;4.45;1.52;;;;;;;19.71;68.06;101274.50;5039812;28;20048;-62
2023/08/16 04:28:54;;;;;;;8.75;1.80;;;;;;;19.80;68.33;101282.69;5037554;28;20045;-63
2023/08/16 04:31:21;;;;;;;5.97;1.70;;;;;;;19.42;69.86;101279.72;5074593;28;20040;-62
2023/08/16 04:33:49;;;;;;;4.47;1.48;;;;;;;19.37;70.10;101286.38;5074918;28;20055;-63
2023/08/16 04:36:16;;;;;;;9.27;1.90;;;;;;;19.51;69.40;101281.16;5058663;28;20511;-63
2023/08/16 04:38:44;;;;;;;7.10;1.90;;;;;;;20.01;68.23;101289.59;5056183;28;20053;-64
2023/08/16 04:41:11;;;;;;;5.38;1.60;;;;;;;19.91;67.59;101287.38;5056069;28;20065;-63
2023/08/16 04:43:39;;;;;;;6.22;1.50;;;;;;;19.69;68.99;101282.44;5064438;28;20045;-63
2023/08/16 04:46:07;;;;;;;5.93;1.90;;;;;;;19.73;68.63;101288.94;5055004;28;20060;-63
2023/08/16 04:48:36;;;;;;;8.98;1.73;;;;;;;20.21;67.41;101286.91;5054808;28;20055;-62
2023/08/16 04:51:05;;;;;;;8.82;1.80;;;;;;;20.17;66.67;101284.84;5053232;28;20147;-65
2023/08/16 04:53:33;;;;;;;6.47;1.83;;;;;;;19.85;67.70;101283.25;5056130;28;20041;-63
2023/08/16 04:56:00;;;;;;;7.65;1.95;;;;;;;19.82;68.13;101281.16;5050657;28;20061;-62
2023/08/16 04:58:29;;;;;;;8.93;1.95;;;;;;;19.78;68.16;101285.84;5036655;28;20052;-62
2023/08/16 05:01:00;;;;;;;12.40;2.20;;;;;;;19.64;68.37;101285.50;5054788;28;20052;-62
2023/08/16 05:03:30;;;;;;;6.47;1.85;;;;;;;19.64;68.77;101287.47;5055000;28;20053;-65
2023/08/16 05:06:03;;;;;;;5.53;1.73;;;;;;;19.69;68.73;101290.00;5055388;28;20076;-63
2023/08/16 05:08:34;;;;;;;10.82;2.03;;;;;;;19.71;68.82;101284.84;5056288;28;20049;-62
2023/08/16 05:11:05;;;;;;;7.05;2.22;;;;;;;19.56;69.68;101285.69;5054273;28;20053;-64
2023/08/16 05:13:33;;;;;;;7.72;2.10;;;;;;;19.63;69.61;101295.03;5055591;28;20498;-65
2023/08/16 05:16:01;;;;;;;6.70;2.45;;;;;;;19.55;69.48;101300.81;5050227;28;20057;-61
2023/08/16 05:18:29;;;;;;;10.35;2.45;;;;;;;19.68;69.73;101300.34;5034463;28;20823;-63
2023/08/16 05:21:00;;;;;;;10.38;2.03;;;;;;;19.78;68.70;101299.84;5042490;28;20056;-66
2023/08/16 05:23:31;;;;;;;7.75;2.17;;;;;;;19.89;68.70;101294.50;5054587;28;20049;-64
2023/08/16 05:25:59;;;;;;;9.23;2.30;;;;;;;20.14;67.00;101295.91;5054905;28;20074;-62
2023/08/16 05:28:35;;;;;;;6.03;1.85;;;;;;;20.12;67.14;101296.28;5035388;28;20072;-62
2023/08/16 05:31:11;;;;;;;11.57;2.25;;;;;;;19.70;68.08;101305.63;5053919;28;20052;-63
2023/08/16 05:33:39;;;;;;;9.45;1.80;;;;;;;19.71;67.82;101302.44;5075300;28;20045;-65
2023/08/16 05:36:08;;;;;;;8.77;2.28;;;;;;;19.63;68.86;101297.03;5058854;28;20060;-64
2023/08/16 05:38:36;;;;;;;11.40;2.00;;;;;;;19.64;69.02;101307.03;5054361;28;20088;-64
2023/08/16 05:41:03;;;;;;;10.88;2.10;;;;;;;19.68;69.06;101303.16;5054593;28;20592;-64
2023/08/16 05:43:31;;;;;;;14.48;2.55;;;;;;;19.51;69.09;101311.09;5054794;28;20048;-63
2023/08/16 05:45:59;;;;;;;8.13;2.42;;;;;;;19.48;70.22;101304.25;5053817;28;20057;-63
2023/08/16 05:48:27;;;;;;;7.40;2.10;;;;;;;19.74;68.78;101303.69;5054826;28;20048;-64
2023/08/16 05:50:54;;;;;;;9.57;2.50;;;;;;;19.72;68.85;101300.44;5054522;28;20075;-64
2023/08/16 05:53:22;;;;;;;11.60;2.33;;;;;;;19.62;69.38;101306.59;5055059;28;20052;-62
2023/08/16 05:55:49;;;;;;;9.05;2.00;;;;;;;19.79;69.21;101295.84;5053768;28;20056;-62
2023/08/16 05:58:22;;;;;;;53.75;5.25;;;;;;;19.77;68.76;101295.41;5054602;28;20045;-62
2023/08/16 06:00:52;;;;;;;29.17;4.40;;;;;;;19.85;68.69;101302.00;5054498;28;20049;-63
2023/08/16 06:03:19;;;;;;;10.85;2.28;;;;;;;19.80;68.62;101299.47;5054538;28;20052;-63
2023/08/16 06:05:47;;;;;;;10.57;2.38;;;;;;;19.60;69.34;101295.78;5054354;28;20091;-62
2023/08/16 06:08:16;;;;;;;10.88;2.55;;;;;;;19.76;69.07;101299.38;5054327;28;20045;-62
2023/08/16 06:10:43;;;;;;;13.82;3.13;;;;;;;19.81;68.76;101313.09;5052288;28;20056;-63
2023/08/16 06:13:10;;;;;;;11.32;2.90;;;;;;;19.70;68.97;101311.19;5054475;28;20052;-62
2023/08/16 06:15:38;;;;;;;10.05;2.78;;;;;;;19.53;69.78;101315.16;5052722;28;20059;-63
2023/08/16 06:18:05;;;;;;;8.63;2.55;;;;;;;19.51;70.32;101317.47;5054227;28;20400;-63
2023/08/16 06:20:34;;;;;;;9.70;2.78;;;;;;;19.48;70.55;101315.41;5054522;28;20048;-63
2023/08/16 06:23:01;;;;;;;9.40;2.78;;;;;;;19.57;70.15;101321.66;5054607;28;20041;-63
2023/08/16 06:25:29;;;;;;;11.57;2.88;;;;;;;19.49;71.19;101307.84;5037372;28;20068;-63
2023/08/16 06:27:58;;;;;;;12.98;2.35;;;;;;;19.50;71.04;101310.28;5050009;28;20052;-63
2023/08/16 06:30:25;;;;;;;11.82;3.28;;;;;;;19.45;71.02;101323.69;5065704;28;20049;-62
2023/08/16 06:32:53;;;;;;;8.02;2.40;;;;;;;19.62;70.87;101318.59;5073826;28;20048;-62
2023/08/16 06:35:20;;;;;;;9.60;2.47;;;;;;;20.00;69.96;101331.91;5065371;28;20052;-63
2023/08/16 06:37:48;;;;;;;10.88;2.95;;;;;;;20.17;69.17;101325.19;5054222;28;20048;-62
2023/08/16 06:40:15;;;;;;;6.95;2.30;;;;;;;19.87;69.29;101336.81;5054183;28;20040;-65
2023/08/16 06:42:43;;;;;;;12.23;2.63;;;;;;;19.84;70.04;101333.94;5052644;28;20045;-63
2023/08/16 06:45:16;;;;;;;8.85;3.03;;;;;;;20.14;69.28;101327.50;5046687;28;20045;-63
2023/08/16 06:47:44;;;;;;;13.18;4.40;;;;;;;20.02;69.45;101322.00;5053762;28;20058;-63
2023/08/16 06:50:12;;;;;;;12.95;3.20;;;;;;;19.84;70.38;101314.38;5054055;28;20045;-65
2023/08/16 06:52:42;;;;;;;13.35;3.90;;;;;;;19.57;71.72;101321.66;5053512;28;20381;-64
2023/08/16 06:55:10;;;;;;;9.80;3.20;;;;;;;19.55;72.11;101325.97;5054632;28;20055;-63
2023/08/16 06:57:38;;;;;;;10.90;4.10;;;;;;;19.62;72.90;101324.16;5053516;28;20056;-67
2023/08/16 07:00:07;;;;;;;9.48;3.10;;;;;;;20.03;71.21;101328.41;5053754;28;20060;-63
2023/08/16 07:02:35;;;;;;;12.07;3.55;;;;;;;20.38;69.62;101334.09;5053724;28;20064;-62
2023/08/16 07:05:03;;;;;;;10.98;4.30;;;;;;;20.16;70.15;101327.16;5052564;28;20049;-63
2023/08/16 07:07:31;;;;;;;11.73;3.78;;;;;;;20.23;70.58;101323.72;5053045;28;20755;-64
2023/08/16 07:09:59;;;;;;;12.23;3.65;;;;;;;20.74;69.20;101323.31;5054058;28;20080;-64
2023/08/16 07:12:26;;;;;;;13.32;3.78;;;;;;;21.28;67.06;101323.25;5053715;28;20064;-63
2023/08/16 07:14:54;;;;;;;10.63;3.40;;;;;;;21.04;66.36;101329.19;5053014;28;20056;-63
2023/08/16 07:17:21;;;;;;;14.98;3.60;;;;;;;20.58;68.08;101322.56;5051920;28;20081;-64
2023/08/16 07:19:50;;;;;;;10.52;3.15;;;;;;;20.80;68.08;101318.25;5052508;28;20044;-63
2023/08/16 07:22:20;;;;;;;10.52;3.05;;;;;;;20.98;66.69;101319.41;5053350;28;20438;-61
2023/08/16 07:24:48;;;;;;;9.80;3.42;;;;;;;20.80;67.89;101324.63;5055899;28;20046;-62
2023/08/16 07:27:15;;;;;;;12.88;3.67;;;;;;;20.75;68.30;101316.53;5043511;28;20064;-64
2023/08/16 07:29:43;;;;;;;9.02;3.65;;;;;;;20.67;69.36;101322.34;5059536;28;20684;-66
2023/08/16 07:32:10;;;;;;;15.70;3.72;;;;;;;20.78;68.67;101318.59;5071752;28;20048;-63
2023/08/16 07:34:38;;;;;;;18.80;3.90;;;;;;;20.69;68.62;101336.78;5070495;28;20190;-62
2023/08/16 07:37:07;;;;;;;14.80;4.40;;;;;;;20.68;68.96;101337.94;5052952;28;20499;-62
2023/08/16 07:39:34;;;;;;;18.60;3.63;;;;;;;20.70;68.71;101336.41;5053283;28;20152;-62
2023/08/16 07:42:02;;;;;;;15.60;4.00;;;;;;;20.99;67.99;101321.06;5052866;28;20064;-64
2023/08/16 07:44:29;;;;;;;10.55;3.42;;;;;;;21.07;67.93;101323.66;5052884;28;20393;-63
2023/08/16 07:46:57;;;;;;;12.10;3.60;;;;;;;20.85;68.08;101315.16;5052904;28;20048;-63
2023/08/16 07:49:24;;;;;;;10.55;4.35;;;;;;;20.72;69.53;101316.44;5052892;28;20427;-64
2023/08/16 07:51:55;;;;;;;14.98;4.63;;;;;;;20.83;68.73;101311.91;5050957;28;20060;-62
2023/08/16 07:54:23;;;;;;;17.35;4.13;;;;;;;20.88;68.35;101308.81;5051999;28;20044;-64
2023/08/16 07:56:51;;;;;;;11.40;3.47;;;;;;;20.56;69.55;101313.72;5051995;28;20055;-63
2023/08/16 07:59:19;;;;;;;21.88;5.25;;;;;;;20.72;69.08;101319.25;5050960;28;20061;-62
2023/08/16 08:01:46;;;;;;;19.13;3.97;;;;;;;20.92;69.03;101315.28;5052866;28;20094;-63
2023/08/16 08:04:14;;;;;;;9.02;3.60;;;;;;;21.13;67.97;101312.97;5053042;28;20061;-63
2023/08/16 08:06:41;;;;;;;10.98;3.17;;;;;;;21.50;67.08;101313.22;5052599;28;20049;-62
2023/08/16 08:09:09;;;;;;;14.52;3.78;;;;;;;21.01;68.09;101305.50;5052660;28;20045;-61
2023/08/16 08:11:37;;;;;;;17.17;3.72;;;;;;;21.22;67.78;101311.53;5051227;28;20049;-63
2023/08/16 08:14:05;;;;;;;14.48;3.70;;;;;;;21.19;67.64;101308.66;5052363;28;20052;-62
2023/08/16 08:16:32;;;;;;;11.48;3.63;;;;;;;21.27;67.21;101315.22;5045281;28;20045;-62
2023/08/16 08:19:00;;;;;;;11.95;3.83;;;;;;;21.32;67.46;101320.53;5032809;28;20045;-63
2023/08/16 08:21:27;;;;;;;14.48;3.30;;;;;;;21.50;67.47;101330.06;5045525;28;20045;-63
2023/08/16 08:23:55;;;;;;;10.80;3.63;;;;;;;22.00;65.40;101322.16;5052680;28;20044;-64
2023/08/16 08:26:25;;;;;;;18.83;3.90;;;;;;;21.87;65.73;101320.75;5055019;28;20052;-63
2023/08/16 08:28:52;;;;;;;11.23;3.25;;;;;;;21.60;66.38;101330.25;5056339;28;20500;-64
2023/08/16 08:31:19;;;;;;;9.95;3.72;;;;;;;21.54;66.13;101336.56;5075601;28;20052;-62
2023/08/16 08:33:47;;;;;;;12.57;3.58;;;;;;;21.57;66.46;101336.63;5076228;28;20135;-63
2023/08/16 08:36:15;;;;;;;10.73;3.17;;;;;;;21.73;65.58;101333.69;5054617;28;20053;-63
2023/08/16 08:38:42;;;;;;;10.38;3.47;;;;;;;21.51;66.19;101338.13;5056337;28;20048;-63
2023/08/16 08:41:10;;;;;;;30.80;4.50;;;;;;;21.79;65.81;101333.03;5055472;28;20057;-61
2023/08/16 08:43:38;;;;;;;12.70;4.45;;;;;;;21.92;65.61;101342.06;5055271;28;20075;-64
2023/08/16 08:46:27;;;;;;;9.82;3.35;;;;;;;22.13;64.41;101351.66;5043910;28;20060;-62
2023/08/16 08:48:55;;;;;;;;;;;;;;;22.41;63.73;101342.06;5056299;28;20048;-63
2023/08/16 08:51:24;;;;;;;9.18;2.65;;;;;;;22.45;63.45;101348.53;5054564;28;19921;-63
2023/08/16 08:53:51;;;;;;;12.82;3.60;;;;;;;22.29;64.01;101345.91;5055726;28;20048;-63
2023/08/16 08:56:19;;;;;;;13.27;3.60;;;;;;;22.37;64.01;101342.00;5055581;28;20045;-62
2023/08/16 08:58:47;;;;;;;10.70;3.35;;;;;;;22.82;63.22;101344.69;5056143;28;20053;-62
2023/08/16 09:01:23;;;;;;;15.25;4.22;;;;;;;22.62;63.02;101343.22;5052101;28;20041;-65
2023/08/16 09:03:52;;;;;;;13.95;4.55;;;;;;;22.71;62.76;101340.94;5034209;28;20448;-63
2023/08/16 09:06:20;;;;;;;11.00;4.22;;;;;;;22.66;63.20;101344.09;5035741;28;20049;-63
2023/08/16 09:08:48;;;;;;;11.48;4.35;;;;;;;22.44;63.97;101346.94;5035056;28;20049;-66
2023/08/16 09:11:16;;;;;;;12.00;4.18;;;;;;;22.30;64.52;101331.47;5035423;28;20056;-63
2023/08/16 09:13:43;;;;;;;12.82;4.32;;;;;;;22.51;63.97;101324.59;5035107;28;20124;-65
2023/08/16 09:16:11;;;;;;;11.35;3.90;;;;;;;22.60;63.40;101327.94;5035616;28;20401;-63
2023/08/16 09:18:47;;;;;;;11.75;3.22;;;;;;;22.41;64.12;101336.44;5035449;28;20053;-61
2023/08/16 09:21:24;;;;;;;9.13;3.42;;;;;;;22.79;63.53;101342.66;5045681;28;20052;-62
2023/08/16 09:23:56;;;;;;;14.32;3.83;;;;;;;22.67;63.15;101328.84;5053877;28;20064;-62
2023/08/16 09:26:26;;;;;;;12.52;3.22;;;;;;;22.77;63.19;101330.19;5054823;28;20041;-63
2023/08/16 09:29:00;;;;;;;;;;;;;;;22.82;63.01;101330.66;5055423;28;20064;-63
2023/08/16 09:31:29;;;;;;;9.93;3.08;;;;;;;23.13;61.52;101329.44;5035061;28;19944;-64
2023/08/16 09:34:01;;;;;;;10.48;3.53;;;;;;;23.02;62.54;101329.31;5048371;28;20514;-64
2023/08/16 09:36:34;;;;;;;9.35;3.10;;;;;;;22.92;62.41;101330.00;5052709;28;20048;-62
2023/08/16 09:39:05;;;;;;;7.93;2.95;;;;;;;22.87;62.83;101321.09;5055082;28;20048;-62
2023/08/16 09:41:32;;;;;;;11.20;3.25;;;;;;;23.26;62.03;101323.16;5054178;28;20057;-63
2023/08/16 09:44:07;;;;;;;8.18;2.75;;;;;;;23.57;60.92;101315.50;5055492;28;20061;-63
2023/08/16 09:46:35;;;;;;;6.38;3.05;;;;;;;23.66;60.20;101313.97;5054724;28;20660;-65
2023/08/16 09:49:23;;;;;;;13.05;4.10;;;;;;;23.99;60.00;101299.81;5055021;28;20056;-62
2023/08/16 09:51:51;;;;;;;10.18;4.88;;;;;;;24.32;58.56;101301.69;5054783;28;20060;-63
2023/08/16 09:54:22;;;;;;;19.65;3.63;;;;;;;23.50;59.94;101313.44;5054372;28;20528;-63
2023/08/16 09:56:52;;;;;;;15.50;3.22;;;;;;;23.39;61.07;101299.25;5054552;28;20111;-64
2023/08/16 09:59:22;;;;;;;10.07;3.22;;;;;;;23.50;60.51;101298.56;5054487;28;20059;-63
2023/08/16 10:01:54;;;;;;;13.70;3.10;;;;;;;23.93;59.49;101283.66;5053692;28;20595;-62
2023/08/16 10:04:39;;;;;;;12.48;3.42;;;;;;;24.01;58.73;101277.72;5054410;28;20052;-62
2023/08/16 10:07:10;;;;;;;9.35;3.05;;;;;;;23.92;59.19;101273.63;5053537;28;20048;-63
2023/08/16 10:09:41;;;;;;;11.13;3.58;;;;;;;24.15;58.67;101260.94;5053984;28;20060;-62
2023/08/16 10:12:10;;;;;;;10.90;2.95;;;;;;;24.24;57.89;101252.97;5052717;28;20071;-63
2023/08/16 10:14:38;;;;;;;10.73;2.58;;;;;;;24.21;57.75;101256.56;5054213;28;20043;-63
2023/08/16 10:17:07;;;;;;;9.20;3.13;;;;;;;24.02;58.41;101247.59;5054489;28;20044;-63
2023/08/16 10:19:38;;;;;;;6.57;2.80;;;;;;;24.09;57.56;101254.09;5053038;28;20045;-64
2023/08/16 10:22:24;;;;;;;10.25;3.35;;;;;;;24.21;57.16;101265.03;5053952;28;20455;-63
2023/08/16 10:24:54;;;;;;;10.95;3.63;;;;;;;24.16;57.82;101262.56;5053630;28;20489;-63
2023/08/16 10:27:23;;;;;;;8.18;3.05;;;;;;;24.58;56.97;101256.38;5054135;28;20059;-62
2023/08/16 10:30:01;;;;;;;8.75;2.63;;;;;;;24.33;56.17;101261.06;5060405;28;20044;-63
2023/08/16 10:32:32;;;;;;;11.55;3.20;;;;;;;24.26;57.39;101264.66;5072654;28;20056;-62
2023/08/16 10:34:59;;;;;;;8.63;2.88;;;;;;;24.41;56.81;101257.88;5068414;28;20061;-63
2023/08/16 10:37:27;;;;;;;7.68;2.63;;;;;;;24.28;56.32;101259.44;5052033;28;20420;-63
2023/08/16 10:39:54;;;;;;;7.75;2.67;;;;;;;24.30;56.15;101242.94;5053709;28;20373;-63
2023/08/16 10:42:26;;;;;;;8.90;2.63;;;;;;;24.26;56.03;101252.56;5060268;28;20056;-63
2023/08/16 10:44:54;;;;;;;8.43;2.90;;;;;;;24.71;55.78;101251.22;5054765;28;20071;-62
2023/08/16 10:47:28;;;;;;;8.02;3.20;;;;;;;24.98;54.40;101246.88;5053970;28;20307;-63
2023/08/16 10:49:57;;;;;;;8.30;2.80;;;;;;;24.60;55.58;101258.78;5051217;28;20048;-62
2023/08/16 10:52:28;;;;;;;8.05;2.22;;;;;;;24.55;54.32;101253.53;5052471;28;20045;-63
2023/08/16 10:54:56;;;;;;;5.22;2.30;;;;;;;24.42;54.47;101253.88;5053587;28;20536;-63
2023/08/16 10:57:27;;;;;;;6.72;2.33;;;;;;;24.42;54.91;101251.06;5052506;28;20048;-63
2023/08/16 11:00:05;;;;;;;11.05;2.72;;;;;;;24.68;54.73;101251.97;5053265;28;20053;-64
2023/08/16 11:02:35;;;;;;;6.05;3.00;;;;;;;24.98;54.54;101246.88;5051614;28;20489;-61
2023/08/16 11:05:03;;;;;;;;;;;;;;;25.26;53.89;101230.03;5052529;28;20056;-62
2023/08/16 11:07:31;;;;;;;14.95;4.70;;;;;;;25.19;54.05;101244.91;5053140;28;20288;-63
2023/08/16 11:10:00;;;;;;;5.50;2.72;;;;;;;25.04;53.20;101234.81;5051637;28;20065;-63
2023/08/16 11:12:31;;;;;;;8.40;2.50;;;;;;;25.10;51.92;101236.06;5054226;28;20571;-63
2023/08/16 11:14:58;;;;;;;6.90;2.13;;;;;;;25.07;51.88;101236.84;5053435;28;20291;-63
2023/08/16 11:17:26;;;;;;;4.53;1.90;;;;;;;25.12;51.36;101232.84;5052269;28;20410;-62
2023/08/16 11:19:55;;;;;;;6.27;1.57;;;;;;;25.04;50.89;101229.19;5053424;28;20057;-64
2023/08/16 11:22:24;;;;;;;6.30;1.75;;;;;;;25.33;50.28;101225.19;5053261;28;20053;-63
2023/08/16 11:24:55;;;;;;;10.27;1.80;;;;;;;25.50;49.50;101220.81;5052901;28;20045;-64
2023/08/16 11:27:23;;;;;;;6.47;1.80;;;;;;;25.58;49.22;101217.59;5052651;28;20051;-62
2023/08/16 11:30:00;;;;;;;9.52;1.83;;;;;;;25.74;48.54;101208.72;5060117;28;20063;-65
2023/08/16 11:32:36;;;;;;;11.25;2.40;;;;;;;25.44;49.20;101208.31;5071035;28;20052;-62